sensor_id;sensor_type;location;lat;lon;timestamp;P1;durP1;ratioP1;P2;durP2;ratioP2
7919;SDS011;18778;47.610;9.776;2023-01-23T00:00:04;20.13;;;13.57;;
7919;SDS011;18778;47.610;9.776;2023-01-23T00:02:32;20.57;;;12.87;;
7919;SDS011;18778;47.610;9.776;2023-01-23T00:04:58;20.33;;;12.37;;
7919;SDS011;18778;47.610;9.776;2023-01-23T00:07:23;20.60;;;12.90;;
7919;SDS011;18778;47.610;9.776;2023-01-23T00:09:49;18.23;;;12.37;;
7919;SDS011;18778;47.610;9.776;2023-01-23T00:12:15;19.57;;;12.47;;
7919;SDS011;18778;47.610;9.776;2023-01-23T00:14:40;20.43;;;13.30;;
7919;SDS011;18778;47.610;9.776;2023-01-23T00:17:06;20.33;;;12.77;;
7919;SDS011;18778;47.610;9.776;2023-01-23T00:19:31;20.30;;;13.03;;
7919;SDS011;18778;47.610;9.776;2023-01-23T00:21:58;19.53;;;12.60;;
7919;SDS011;18778;47.610;9.776;2023-01-23T00:24:24;20.73;;;12.47;;
7919;SDS011;18778;47.610;9.776;2023-01-23T00:26:50;19.47;;;12.90;;
7919;SDS011;18778;47.610;9.776;2023-01-23T00:29:15;22.20;;;13.60;;
7919;SDS011;18778;47.610;9.776;2023-01-23T00:31:41;22.20;;;13.77;;
7919;SDS011;18778;47.610;9.776;2023-01-23T00:34:09;22.03;;;12.97;;
7919;SDS011;18778;47.610;9.776;2023-01-23T00:36:39;20.67;;;14.00;;
7919;SDS011;18778;47.610;9.776;2023-01-23T00:39:16;24.30;;;15.40;;
7919;SDS011;18778;47.610;9.776;2023-01-23T00:41:46;22.70;;;14.23;;
7919;SDS011;18778;47.610;9.776;2023-01-23T00:44:13;23.73;;;14.33;;
7919;SDS011;18778;47.610;9.776;2023-01-23T00:46:40;23.40;;;15.03;;
7919;SDS011;18778;47.610;9.776;2023-01-23T00:49:06;27.03;;;15.43;;
7919;SDS011;18778;47.610;9.776;2023-01-23T00:51:32;22.83;;;14.83;;
7919;SDS011;18778;47.610;9.776;2023-01-23T00:53:58;28.07;;;16.37;;
7919;SDS011;18778;47.610;9.776;2023-01-23T00:56:24;27.33;;;16.43;;
7919;SDS011;18778;47.610;9.776;2023-01-23T00:58:50;28.80;;;15.87;;
7919;SDS011;18778;47.610;9.776;2023-01-23T01:01:16;27.43;;;15.83;;
7919;SDS011;18778;47.610;9.776;2023-01-23T01:03:42;28.93;;;17.87;;
7919;SDS011;18778;47.610;9.776;2023-01-23T01:06:09;30.87;;;17.40;;
7919;SDS011;18778;47.610;9.776;2023-01-23T01:08:35;29.33;;;17.63;;
7919;SDS011;18778;47.610;9.776;2023-01-23T01:11:01;29.70;;;17.60;;
7919;SDS011;18778;47.610;9.776;2023-01-23T01:13:27;30.23;;;17.00;;
7919;SDS011;18778;47.610;9.776;2023-01-23T01:15:52;30.60;;;17.07;;
7919;SDS011;18778;47.610;9.776;2023-01-23T01:18:19;33.00;;;18.33;;
7919;SDS011;18778;47.610;9.776;2023-01-23T01:20:46;33.93;;;19.20;;
7919;SDS011;18778;47.610;9.776;2023-01-23T01:23:12;32.70;;;18.50;;
7919;SDS011;18778;47.610;9.776;2023-01-23T01:25:38;32.47;;;18.10;;
7919;SDS011;18778;47.610;9.776;2023-01-23T01:28:04;36.97;;;18.30;;
7919;SDS011;18778;47.610;9.776;2023-01-23T01:30:29;32.10;;;19.13;;
7919;SDS011;18778;47.610;9.776;2023-01-23T01:32:55;28.57;;;16.87;;
7919;SDS011;18778;47.610;9.776;2023-01-23T01:35:21;32.93;;;18.83;;
7919;SDS011;18778;47.610;9.776;2023-01-23T01:37:48;34.00;;;18.40;;
7919;SDS011;18778;47.610;9.776;2023-01-23T01:40:15;33.37;;;18.50;;
7919;SDS011;18778;47.610;9.776;2023-01-23T01:42:44;35.80;;;19.30;;
7919;SDS011;18778;47.610;9.776;2023-01-23T01:48:18;37.07;;;19.37;;
7919;SDS011;18778;47.610;9.776;2023-01-23T01:50:48;32.07;;;17.37;;
7919;SDS011;18778;47.610;9.776;2023-01-23T01:53:14;28.27;;;16.90;;
7919;SDS011;18778;47.610;9.776;2023-01-23T01:55:40;33.60;;;17.77;;
7919;SDS011;18778;47.610;9.776;2023-01-23T01:58:06;29.67;;;17.37;;
7919;SDS011;18778;47.610;9.776;2023-01-23T02:00:33;31.40;;;17.00;;
7919;SDS011;18778;47.610;9.776;2023-01-23T02:02:58;31.40;;;17.40;;
7919;SDS011;18778;47.610;9.776;2023-01-23T02:05:29;30.03;;;17.13;;
7919;SDS011;18778;47.610;9.776;2023-01-23T02:10:46;29.60;;;16.50;;
7919;SDS011;18778;47.610;9.776;2023-01-23T02:13:20;28.03;;;17.03;;
7919;SDS011;18778;47.610;9.776;2023-01-23T02:15:46;29.03;;;16.40;;
7919;SDS011;18778;47.610;9.776;2023-01-23T02:18:12;27.87;;;16.13;;
7919;SDS011;18778;47.610;9.776;2023-01-23T02:20:38;28.10;;;16.47;;
7919;SDS011;18778;47.610;9.776;2023-01-23T02:23:05;27.13;;;16.73;;
7919;SDS011;18778;47.610;9.776;2023-01-23T02:28:07;30.80;;;16.43;;
7919;SDS011;18778;47.610;9.776;2023-01-23T02:30:34;29.33;;;15.83;;
7919;SDS011;18778;47.610;9.776;2023-01-23T02:35:44;26.57;;;15.03;;
7919;SDS011;18778;47.610;9.776;2023-01-23T02:38:10;25.93;;;14.53;;
7919;SDS011;18778;47.610;9.776;2023-01-23T02:40:37;24.83;;;15.47;;
7919;SDS011;18778;47.610;9.776;2023-01-23T02:43:06;25.57;;;15.80;;
7919;SDS011;18778;47.610;9.776;2023-01-23T02:45:34;25.40;;;14.90;;
7919;SDS011;18778;47.610;9.776;2023-01-23T02:48:01;24.87;;;14.33;;
7919;SDS011;18778;47.610;9.776;2023-01-23T02:50:27;27.00;;;14.77;;
7919;SDS011;18778;47.610;9.776;2023-01-23T02:52:53;43.93;;;21.70;;
7919;SDS011;18778;47.610;9.776;2023-01-23T02:55:19;66.17;;;29.33;;
7919;SDS011;18778;47.610;9.776;2023-01-23T02:57:45;54.67;;;24.47;;
7919;SDS011;18778;47.610;9.776;2023-01-23T03:00:12;79.23;;;33.63;;
7919;SDS011;18778;47.610;9.776;2023-01-23T03:02:43;93.93;;;35.73;;
7919;SDS011;18778;47.610;9.776;2023-01-23T03:05:13;72.77;;;30.67;;
7919;SDS011;18778;47.610;9.776;2023-01-23T03:07:39;41.27;;;21.50;;
7919;SDS011;18778;47.610;9.776;2023-01-23T03:10:05;35.57;;;18.37;;
7919;SDS011;18778;47.610;9.776;2023-01-23T03:12:33;26.93;;;14.93;;
7919;SDS011;18778;47.610;9.776;2023-01-23T03:14:59;35.10;;;18.33;;
7919;SDS011;18778;47.610;9.776;2023-01-23T03:17:25;37.90;;;19.77;;
7919;SDS011;18778;47.610;9.776;2023-01-23T03:19:52;41.50;;;22.67;;
7919;SDS011;18778;47.610;9.776;2023-01-23T03:22:19;32.20;;;19.27;;
7919;SDS011;18778;47.610;9.776;2023-01-23T03:24:45;29.23;;;16.63;;
7919;SDS011;18778;47.610;9.776;2023-01-23T03:27:11;24.93;;;14.63;;
7919;SDS011;18778;47.610;9.776;2023-01-23T03:29:36;24.13;;;14.37;;
7919;SDS011;18778;47.610;9.776;2023-01-23T03:32:20;26.37;;;14.50;;
7919;SDS011;18778;47.610;9.776;2023-01-23T03:34:46;23.30;;;14.63;;
7919;SDS011;18778;47.610;9.776;2023-01-23T03:37:12;25.60;;;14.13;;
7919;SDS011;18778;47.610;9.776;2023-01-23T03:39:39;24.30;;;14.40;;
7919;SDS011;18778;47.610;9.776;2023-01-23T03:42:23;25.80;;;15.90;;
7919;SDS011;18778;47.610;9.776;2023-01-23T03:44:50;24.70;;;14.33;;
7919;SDS011;18778;47.610;9.776;2023-01-23T03:47:16;23.17;;;14.47;;
7919;SDS011;18778;47.610;9.776;2023-01-23T03:49:41;24.83;;;14.83;;
7919;SDS011;18778;47.610;9.776;2023-01-23T03:52:07;25.23;;;14.60;;
7919;SDS011;18778;47.610;9.776;2023-01-23T03:54:32;25.97;;;14.80;;
7919;SDS011;18778;47.610;9.776;2023-01-23T03:56:58;24.03;;;14.87;;
7919;SDS011;18778;47.610;9.776;2023-01-23T03:59:24;23.10;;;14.03;;
7919;SDS011;18778;47.610;9.776;2023-01-23T04:01:49;24.07;;;14.13;;
7919;SDS011;18778;47.610;9.776;2023-01-23T04:04:15;24.33;;;14.27;;
7919;SDS011;18778;47.610;9.776;2023-01-23T04:06:41;25.03;;;14.03;;
7919;SDS011;18778;47.610;9.776;2023-01-23T04:09:06;25.77;;;15.27;;
7919;SDS011;18778;47.610;9.776;2023-01-23T04:11:32;23.37;;;14.37;;
7919;SDS011;18778;47.610;9.776;2023-01-23T04:13:57;22.93;;;14.17;;
7919;SDS011;18778;47.610;9.776;2023-01-23T04:16:23;25.10;;;14.87;;
7919;SDS011;18778;47.610;9.776;2023-01-23T04:18:49;24.87;;;14.60;;
7919;SDS011;18778;47.610;9.776;2023-01-23T04:21:15;29.03;;;16.43;;
7919;SDS011;18778;47.610;9.776;2023-01-23T04:23:41;27.03;;;17.07;;
7919;SDS011;18778;47.610;9.776;2023-01-23T04:26:06;32.33;;;16.13;;
7919;SDS011;18778;47.610;9.776;2023-01-23T04:28:32;27.43;;;16.40;;
7919;SDS011;18778;47.610;9.776;2023-01-23T04:30:57;25.43;;;15.63;;
7919;SDS011;18778;47.610;9.776;2023-01-23T04:33:23;27.83;;;15.47;;
7919;SDS011;18778;47.610;9.776;2023-01-23T04:35:49;27.07;;;15.73;;
7919;SDS011;18778;47.610;9.776;2023-01-23T04:38:17;24.63;;;14.53;;
7919;SDS011;18778;47.610;9.776;2023-01-23T04:40:43;29.20;;;16.13;;
7919;SDS011;18778;47.610;9.776;2023-01-23T04:43:10;26.83;;;15.80;;
7919;SDS011;18778;47.610;9.776;2023-01-23T04:45:36;29.37;;;15.30;;
7919;SDS011;18778;47.610;9.776;2023-01-23T04:48:02;26.93;;;14.73;;
7919;SDS011;18778;47.610;9.776;2023-01-23T04:50:27;25.60;;;14.97;;
7919;SDS011;18778;47.610;9.776;2023-01-23T04:52:53;26.57;;;15.23;;
7919;SDS011;18778;47.610;9.776;2023-01-23T04:55:19;24.23;;;15.03;;
7919;SDS011;18778;47.610;9.776;2023-01-23T04:57:44;24.13;;;14.40;;
7919;SDS011;18778;47.610;9.776;2023-01-23T05:00:10;26.57;;;14.23;;
7919;SDS011;18778;47.610;9.776;2023-01-23T05:02:36;26.40;;;15.17;;
7919;SDS011;18778;47.610;9.776;2023-01-23T05:05:02;26.27;;;15.70;;
7919;SDS011;18778;47.610;9.776;2023-01-23T05:07:27;24.47;;;14.20;;
7919;SDS011;18778;47.610;9.776;2023-01-23T05:09:53;26.43;;;14.97;;
7919;SDS011;18778;47.610;9.776;2023-01-23T05:12:19;26.97;;;15.57;;
7919;SDS011;18778;47.610;9.776;2023-01-23T05:14:44;28.77;;;15.90;;
7919;SDS011;18778;47.610;9.776;2023-01-23T05:17:09;28.03;;;14.93;;
7919;SDS011;18778;47.610;9.776;2023-01-23T05:19:35;26.23;;;16.07;;
7919;SDS011;18778;47.610;9.776;2023-01-23T05:22:01;26.10;;;15.30;;
7919;SDS011;18778;47.610;9.776;2023-01-23T05:24:27;24.60;;;14.33;;
7919;SDS011;18778;47.610;9.776;2023-01-23T05:26:52;24.37;;;14.90;;
7919;SDS011;18778;47.610;9.776;2023-01-23T05:29:18;21.97;;;13.87;;
7919;SDS011;18778;47.610;9.776;2023-01-23T05:31:43;21.90;;;14.47;;
7919;SDS011;18778;47.610;9.776;2023-01-23T05:34:09;20.73;;;13.47;;
7919;SDS011;18778;47.610;9.776;2023-01-23T05:36:34;17.60;;;13.10;;
7919;SDS011;18778;47.610;9.776;2023-01-23T05:39:00;20.47;;;13.37;;
7919;SDS011;18778;47.610;9.776;2023-01-23T05:41:25;22.67;;;12.97;;
7919;SDS011;18778;47.610;9.776;2023-01-23T05:43:51;19.30;;;13.33;;
7919;SDS011;18778;47.610;9.776;2023-01-23T05:46:17;19.43;;;12.67;;
7919;SDS011;18778;47.610;9.776;2023-01-23T05:48:42;17.40;;;11.97;;
7919;SDS011;18778;47.610;9.776;2023-01-23T05:51:08;18.53;;;12.40;;
7919;SDS011;18778;47.610;9.776;2023-01-23T05:53:33;18.63;;;12.30;;
7919;SDS011;18778;47.610;9.776;2023-01-23T05:56:03;17.70;;;11.87;;
7919;SDS011;18778;47.610;9.776;2023-01-23T05:58:29;21.73;;;13.03;;
7919;SDS011;18778;47.610;9.776;2023-01-23T06:00:55;19.37;;;11.97;;
7919;SDS011;18778;47.610;9.776;2023-01-23T06:03:20;17.23;;;11.80;;
7919;SDS011;18778;47.610;9.776;2023-01-23T06:05:46;20.37;;;11.93;;
7919;SDS011;18778;47.610;9.776;2023-01-23T06:08:11;18.53;;;12.47;;
7919;SDS011;18778;47.610;9.776;2023-01-23T06:13:13;18.53;;;12.17;;
7919;SDS011;18778;47.610;9.776;2023-01-23T06:15:38;19.27;;;11.60;;
7919;SDS011;18778;47.610;9.776;2023-01-23T06:18:04;20.13;;;12.83;;
7919;SDS011;18778;47.610;9.776;2023-01-23T06:20:29;16.67;;;11.37;;
7919;SDS011;18778;47.610;9.776;2023-01-23T06:22:55;20.33;;;12.27;;
7919;SDS011;18778;47.610;9.776;2023-01-23T06:25:21;19.83;;;12.77;;
7919;SDS011;18778;47.610;9.776;2023-01-23T06:27:47;18.60;;;11.70;;
7919;SDS011;18778;47.610;9.776;2023-01-23T06:30:12;19.97;;;12.73;;
7919;SDS011;18778;47.610;9.776;2023-01-23T06:32:39;21.10;;;12.97;;
7919;SDS011;18778;47.610;9.776;2023-01-23T06:35:05;21.87;;;13.60;;
7919;SDS011;18778;47.610;9.776;2023-01-23T06:37:31;18.33;;;12.63;;
7919;SDS011;18778;47.610;9.776;2023-01-23T06:39:56;21.50;;;13.37;;
7919;SDS011;18778;47.610;9.776;2023-01-23T06:42:22;20.67;;;12.77;;
7919;SDS011;18778;47.610;9.776;2023-01-23T06:44:47;20.07;;;12.90;;
7919;SDS011;18778;47.610;9.776;2023-01-23T06:47:14;27.27;;;16.83;;
7919;SDS011;18778;47.610;9.776;2023-01-23T06:49:40;26.63;;;15.90;;
7919;SDS011;18778;47.610;9.776;2023-01-23T06:52:06;22.63;;;14.57;;
7919;SDS011;18778;47.610;9.776;2023-01-23T06:54:31;20.90;;;13.67;;
7919;SDS011;18778;47.610;9.776;2023-01-23T06:56:57;20.60;;;13.73;;
7919;SDS011;18778;47.610;9.776;2023-01-23T06:59:23;22.97;;;15.00;;
7919;SDS011;18778;47.610;9.776;2023-01-23T07:01:48;27.03;;;17.23;;
7919;SDS011;18778;47.610;9.776;2023-01-23T07:04:14;39.37;;;23.20;;
7919;SDS011;18778;47.610;9.776;2023-01-23T07:06:39;34.40;;;20.23;;
7919;SDS011;18778;47.610;9.776;2023-01-23T07:09:05;25.43;;;15.60;;
7919;SDS011;18778;47.610;9.776;2023-01-23T07:11:30;22.97;;;14.53;;
7919;SDS011;18778;47.610;9.776;2023-01-23T07:13:56;23.50;;;14.77;;
7919;SDS011;18778;47.610;9.776;2023-01-23T07:16:21;22.93;;;14.33;;
7919;SDS011;18778;47.610;9.776;2023-01-23T07:18:48;19.30;;;12.70;;
7919;SDS011;18778;47.610;9.776;2023-01-23T07:21:14;18.20;;;12.03;;
7919;SDS011;18778;47.610;9.776;2023-01-23T07:23:39;20.47;;;12.70;;
7919;SDS011;18778;47.610;9.776;2023-01-23T07:26:05;19.37;;;12.77;;
7919;SDS011;18778;47.610;9.776;2023-01-23T07:28:34;19.40;;;12.63;;
7919;SDS011;18778;47.610;9.776;2023-01-23T07:31:01;19.47;;;12.93;;
7919;SDS011;18778;47.610;9.776;2023-01-23T07:33:26;22.57;;;14.20;;
7919;SDS011;18778;47.610;9.776;2023-01-23T07:35:52;55.47;;;23.23;;
7919;SDS011;18778;47.610;9.776;2023-01-23T07:38:18;65.20;;;22.57;;
7919;SDS011;18778;47.610;9.776;2023-01-23T07:40:44;48.33;;;20.03;;
7919;SDS011;18778;47.610;9.776;2023-01-23T07:43:09;62.33;;;22.47;;
7919;SDS011;18778;47.610;9.776;2023-01-23T07:45:36;74.00;;;23.10;;
7919;SDS011;18778;47.610;9.776;2023-01-23T07:48:02;62.30;;;21.50;;
7919;SDS011;18778;47.610;9.776;2023-01-23T07:50:31;48.83;;;18.50;;
7919;SDS011;18778;47.610;9.776;2023-01-23T07:52:56;52.43;;;21.70;;
7919;SDS011;18778;47.610;9.776;2023-01-23T07:55:22;31.37;;;16.10;;
7919;SDS011;18778;47.610;9.776;2023-01-23T07:57:47;25.77;;;14.40;;
7919;SDS011;18778;47.610;9.776;2023-01-23T08:00:13;28.27;;;16.97;;
7919;SDS011;18778;47.610;9.776;2023-01-23T08:02:39;18.77;;;13.30;;
7919;SDS011;18778;47.610;9.776;2023-01-23T08:05:05;16.57;;;11.67;;
7919;SDS011;18778;47.610;9.776;2023-01-23T08:07:31;20.83;;;13.37;;
7919;SDS011;18778;47.610;9.776;2023-01-23T08:09:56;17.60;;;12.17;;
7919;SDS011;18778;47.610;9.776;2023-01-23T08:12:22;20.07;;;12.90;;
7919;SDS011;18778;47.610;9.776;2023-01-23T08:14:47;20.70;;;13.10;;
7919;SDS011;18778;47.610;9.776;2023-01-23T08:17:13;18.83;;;12.37;;
7919;SDS011;18778;47.610;9.776;2023-01-23T08:19:41;21.23;;;14.07;;
7919;SDS011;18778;47.610;9.776;2023-01-23T08:22:07;18.03;;;12.80;;
7919;SDS011;18778;47.610;9.776;2023-01-23T08:24:33;18.07;;;12.77;;
7919;SDS011;18778;47.610;9.776;2023-01-23T08:26:59;18.67;;;12.83;;
7919;SDS011;18778;47.610;9.776;2023-01-23T08:29:24;17.70;;;11.63;;
7919;SDS011;18778;47.610;9.776;2023-01-23T08:31:50;14.77;;;10.97;;
7919;SDS011;18778;47.610;9.776;2023-01-23T08:34:18;17.63;;;11.93;;
7919;SDS011;18778;47.610;9.776;2023-01-23T08:36:44;18.40;;;12.03;;
7919;SDS011;18778;47.610;9.776;2023-01-23T08:39:10;18.80;;;12.00;;
7919;SDS011;18778;47.610;9.776;2023-01-23T08:41:35;18.53;;;12.40;;
7919;SDS011;18778;47.610;9.776;2023-01-23T08:44:01;16.97;;;11.77;;
7919;SDS011;18778;47.610;9.776;2023-01-23T08:46:27;16.47;;;10.97;;
7919;SDS011;18778;47.610;9.776;2023-01-23T08:48:53;18.27;;;11.83;;
7919;SDS011;18778;47.610;9.776;2023-01-23T08:51:19;19.60;;;12.53;;
7919;SDS011;18778;47.610;9.776;2023-01-23T08:53:45;18.73;;;12.77;;
7919;SDS011;18778;47.610;9.776;2023-01-23T08:56:14;18.93;;;12.90;;
7919;SDS011;18778;47.610;9.776;2023-01-23T08:58:44;23.07;;;14.60;;
7919;SDS011;18778;47.610;9.776;2023-01-23T09:01:11;21.00;;;14.30;;
7919;SDS011;18778;47.610;9.776;2023-01-23T09:03:38;24.93;;;15.10;;
7919;SDS011;18778;47.610;9.776;2023-01-23T09:06:03;24.30;;;16.03;;
7919;SDS011;18778;47.610;9.776;2023-01-23T09:08:29;21.57;;;14.30;;
7919;SDS011;18778;47.610;9.776;2023-01-23T09:11:05;23.00;;;15.10;;
7919;SDS011;18778;47.610;9.776;2023-01-23T09:13:32;20.60;;;14.17;;
7919;SDS011;18778;47.610;9.776;2023-01-23T09:15:58;19.30;;;13.30;;
7919;SDS011;18778;47.610;9.776;2023-01-23T09:18:24;20.93;;;14.40;;
7919;SDS011;18778;47.610;9.776;2023-01-23T09:20:50;22.13;;;14.87;;
7919;SDS011;18778;47.610;9.776;2023-01-23T09:23:16;21.80;;;14.37;;
7919;SDS011;18778;47.610;9.776;2023-01-23T09:25:42;24.13;;;15.27;;
7919;SDS011;18778;47.610;9.776;2023-01-23T09:28:08;21.97;;;15.20;;
7919;SDS011;18778;47.610;9.776;2023-01-23T09:30:34;22.30;;;14.30;;
7919;SDS011;18778;47.610;9.776;2023-01-23T09:32:59;24.20;;;15.20;;
7919;SDS011;18778;47.610;9.776;2023-01-23T09:35:25;20.87;;;14.37;;
7919;SDS011;18778;47.610;9.776;2023-01-23T09:37:51;22.40;;;14.93;;
7919;SDS011;18778;47.610;9.776;2023-01-23T09:40:28;22.23;;;14.17;;
7919;SDS011;18778;47.610;9.776;2023-01-23T09:43:14;23.33;;;14.90;;
7919;SDS011;18778;47.610;9.776;2023-01-23T09:48:41;21.73;;;14.33;;
7919;SDS011;18778;47.610;9.776;2023-01-23T09:51:14;21.00;;;13.67;;
7919;SDS011;18778;47.610;9.776;2023-01-23T09:53:51;20.27;;;14.10;;
7919;SDS011;18778;47.610;9.776;2023-01-23T09:58:59;18.87;;;13.10;;
7919;SDS011;18778;47.610;9.776;2023-01-23T10:01:31;20.27;;;13.73;;
7919;SDS011;18778;47.610;9.776;2023-01-23T10:03:57;19.33;;;13.17;;
7919;SDS011;18778;47.610;9.776;2023-01-23T10:06:46;18.67;;;13.13;;
7919;SDS011;18778;47.610;9.776;2023-01-23T10:12:22;19.47;;;13.60;;
7919;SDS011;18778;47.610;9.776;2023-01-23T10:18:09;18.37;;;13.33;;
7919;SDS011;18778;47.610;9.776;2023-01-23T10:26:33;19.23;;;12.83;;
7919;SDS011;18778;47.610;9.776;2023-01-23T10:32:07;21.07;;;13.27;;
7919;SDS011;18778;47.610;9.776;2023-01-23T10:34:56;19.80;;;13.07;;
7919;SDS011;18778;47.610;9.776;2023-01-23T10:40:21;18.67;;;12.90;;
7919;SDS011;18778;47.610;9.776;2023-01-23T10:43:14;18.37;;;12.50;;
7919;SDS011;18778;47.610;9.776;2023-01-23T10:45:41;20.30;;;12.77;;
7919;SDS011;18778;47.610;9.776;2023-01-23T10:48:37;17.53;;;11.93;;
7919;SDS011;18778;47.610;9.776;2023-01-23T10:59:28;17.90;;;12.27;;
7919;SDS011;18778;47.610;9.776;2023-01-23T11:04:37;19.10;;;12.30;;
7919;SDS011;18778;47.610;9.776;2023-01-23T11:07:05;18.07;;;11.80;;
7919;SDS011;18778;47.610;9.776;2023-01-23T11:10:00;19.93;;;11.97;;
7919;SDS011;18778;47.610;9.776;2023-01-23T11:12:33;23.07;;;13.83;;
7919;SDS011;18778;47.610;9.776;2023-01-23T11:15:20;21.90;;;13.80;;
7919;SDS011;18778;47.610;9.776;2023-01-23T11:17:49;22.87;;;14.60;;
7919;SDS011;18778;47.610;9.776;2023-01-23T11:20:23;21.83;;;12.90;;
7919;SDS011;18778;47.610;9.776;2023-01-23T11:23:28;18.73;;;12.43;;
7919;SDS011;18778;47.610;9.776;2023-01-23T11:25:47;18.63;;;12.40;;
7919;SDS011;18778;47.610;9.776;2023-01-23T11:28:19;18.13;;;12.17;;
7919;SDS011;18778;47.610;9.776;2023-01-23T11:31:34;19.17;;;11.37;;
7919;SDS011;18778;47.610;9.776;2023-01-23T11:38:50;15.97;;;11.03;;
7919;SDS011;18778;47.610;9.776;2023-01-23T11:41:40;17.77;;;12.03;;
7919;SDS011;18778;47.610;9.776;2023-01-23T11:44:12;16.80;;;10.93;;
7919;SDS011;18778;47.610;9.776;2023-01-23T12:09:31;14.17;;;10.43;;
7919;SDS011;18778;47.610;9.776;2023-01-23T12:15:14;15.93;;;10.93;;
7919;SDS011;18778;47.610;9.776;2023-01-23T12:17:47;15.27;;;10.40;;
7919;SDS011;18778;47.610;9.776;2023-01-23T12:23:24;14.20;;;9.97;;
7919;SDS011;18778;47.610;9.776;2023-01-23T12:26:04;14.57;;;9.70;;
7919;SDS011;18778;47.610;9.776;2023-01-23T12:34:19;11.53;;;9.07;;
7919;SDS011;18778;47.610;9.776;2023-01-23T12:45:16;13.70;;;9.27;;
7919;SDS011;18778;47.610;9.776;2023-01-23T12:50:28;12.93;;;9.60;;
7919;SDS011;18778;47.610;9.776;2023-01-23T12:53:18;12.83;;;10.07;;
7919;SDS011;18778;47.610;9.776;2023-01-23T12:58:34;14.90;;;10.73;;
7919;SDS011;18778;47.610;9.776;2023-01-23T13:01:23;16.70;;;11.40;;
7919;SDS011;18778;47.610;9.776;2023-01-23T13:04:27;17.87;;;12.53;;
7919;SDS011;18778;47.610;9.776;2023-01-23T13:06:57;19.53;;;12.23;;
7919;SDS011;18778;47.610;9.776;2023-01-23T13:09:31;18.47;;;11.87;;
7919;SDS011;18778;47.610;9.776;2023-01-23T13:12:20;17.10;;;10.67;;
7919;SDS011;18778;47.610;9.776;2023-01-23T13:14:53;16.93;;;11.43;;
7919;SDS011;18778;47.610;9.776;2023-01-23T13:17:48;17.27;;;11.80;;
7919;SDS011;18778;47.610;9.776;2023-01-23T13:20:24;17.97;;;12.13;;
7919;SDS011;18778;47.610;9.776;2023-01-23T13:26:11;20.87;;;13.13;;
7919;SDS011;18778;47.610;9.776;2023-01-23T13:28:53;20.50;;;13.37;;
7919;SDS011;18778;47.610;9.776;2023-01-23T13:36:40;24.23;;;14.77;;
7919;SDS011;18778;47.610;9.776;2023-01-23T13:41:41;36.57;;;20.07;;
7919;SDS011;18778;47.610;9.776;2023-01-23T13:52:13;31.93;;;16.37;;
7919;SDS011;18778;47.610;9.776;2023-01-23T13:55:01;22.33;;;14.07;;
7919;SDS011;18778;47.610;9.776;2023-01-23T13:57:46;24.13;;;14.90;;
7919;SDS011;18778;47.610;9.776;2023-01-23T14:00:16;25.07;;;15.70;;
7919;SDS011;18778;47.610;9.776;2023-01-23T14:02:49;24.57;;;15.47;;
7919;SDS011;18778;47.610;9.776;2023-01-23T14:05:38;30.07;;;15.50;;
7919;SDS011;18778;47.610;9.776;2023-01-23T14:08:05;23.87;;;14.93;;
7919;SDS011;18778;47.610;9.776;2023-01-23T14:10:43;23.90;;;14.17;;
7919;SDS011;18778;47.610;9.776;2023-01-23T14:13:17;23.87;;;15.00;;
7919;SDS011;18778;47.610;9.776;2023-01-23T14:15:49;22.13;;;13.97;;
7919;SDS011;18778;47.610;9.776;2023-01-23T14:18:38;23.67;;;14.57;;
7919;SDS011;18778;47.610;9.776;2023-01-23T14:21:26;23.80;;;14.57;;
7919;SDS011;18778;47.610;9.776;2023-01-23T14:23:55;21.80;;;13.90;;
7919;SDS011;18778;47.610;9.776;2023-01-23T14:26:46;21.30;;;14.67;;
7919;SDS011;18778;47.610;9.776;2023-01-23T14:29:19;23.43;;;13.83;;
7919;SDS011;18778;47.610;9.776;2023-01-23T14:31:47;24.33;;;14.13;;
7919;SDS011;18778;47.610;9.776;2023-01-23T14:34:16;26.00;;;14.63;;
7919;SDS011;18778;47.610;9.776;2023-01-23T14:36:48;25.67;;;14.60;;
7919;SDS011;18778;47.610;9.776;2023-01-23T14:39:17;23.27;;;14.67;;
7919;SDS011;18778;47.610;9.776;2023-01-23T14:41:45;23.47;;;14.43;;
7919;SDS011;18778;47.610;9.776;2023-01-23T14:44:19;28.20;;;16.17;;
7919;SDS011;18778;47.610;9.776;2023-01-23T14:46:51;29.03;;;15.97;;
7919;SDS011;18778;47.610;9.776;2023-01-23T14:49:22;24.17;;;15.43;;
7919;SDS011;18778;47.610;9.776;2023-01-23T14:52:00;27.27;;;15.43;;
7919;SDS011;18778;47.610;9.776;2023-01-23T14:54:29;26.97;;;16.60;;
7919;SDS011;18778;47.610;9.776;2023-01-23T14:56:55;26.80;;;15.70;;
7919;SDS011;18778;47.610;9.776;2023-01-23T14:59:29;27.87;;;16.60;;
7919;SDS011;18778;47.610;9.776;2023-01-23T15:02:01;27.93;;;16.03;;
7919;SDS011;18778;47.610;9.776;2023-01-23T15:05:01;23.23;;;14.80;;
7919;SDS011;18778;47.610;9.776;2023-01-23T15:07:52;32.90;;;16.83;;
7919;SDS011;18778;47.610;9.776;2023-01-23T15:10:21;25.67;;;14.63;;
7919;SDS011;18778;47.610;9.776;2023-01-23T15:12:58;24.80;;;15.43;;
7919;SDS011;18778;47.610;9.776;2023-01-23T15:15:45;28.33;;;15.80;;
7919;SDS011;18778;47.610;9.776;2023-01-23T15:18:26;26.33;;;16.20;;
7919;SDS011;18778;47.610;9.776;2023-01-23T15:21:02;26.57;;;16.00;;
7919;SDS011;18778;47.610;9.776;2023-01-23T15:23:30;26.83;;;15.97;;
7919;SDS011;18778;47.610;9.776;2023-01-23T15:29:02;29.53;;;18.27;;
7919;SDS011;18778;47.610;9.776;2023-01-23T15:31:41;28.80;;;17.47;;
7919;SDS011;18778;47.610;9.776;2023-01-23T15:34:16;31.60;;;18.43;;
7919;SDS011;18778;47.610;9.776;2023-01-23T15:39:23;28.50;;;17.27;;
7919;SDS011;18778;47.610;9.776;2023-01-23T15:41:54;25.47;;;16.53;;
7919;SDS011;18778;47.610;9.776;2023-01-23T15:44:20;27.30;;;17.13;;
7919;SDS011;18778;47.610;9.776;2023-01-23T15:46:47;26.47;;;15.93;;
7919;SDS011;18778;47.610;9.776;2023-01-23T15:49:13;31.60;;;17.03;;
7919;SDS011;18778;47.610;9.776;2023-01-23T15:51:38;23.70;;;15.53;;
7919;SDS011;18778;47.610;9.776;2023-01-23T15:54:04;28.17;;;17.30;;
7919;SDS011;18778;47.610;9.776;2023-01-23T15:56:34;28.37;;;16.10;;
7919;SDS011;18778;47.610;9.776;2023-01-23T15:59:00;25.57;;;15.87;;
7919;SDS011;18778;47.610;9.776;2023-01-23T16:01:27;28.00;;;15.93;;
7919;SDS011;18778;47.610;9.776;2023-01-23T16:03:53;26.83;;;15.87;;
7919;SDS011;18778;47.610;9.776;2023-01-23T16:06:19;28.43;;;16.37;;
7919;SDS011;18778;47.610;9.776;2023-01-23T16:08:49;29.17;;;16.80;;
7919;SDS011;18778;47.610;9.776;2023-01-23T16:11:16;29.20;;;17.10;;
7919;SDS011;18778;47.610;9.776;2023-01-23T16:13:42;28.37;;;17.53;;
7919;SDS011;18778;47.610;9.776;2023-01-23T16:16:17;29.57;;;17.03;;
7919;SDS011;18778;47.610;9.776;2023-01-23T16:18:43;32.80;;;18.03;;
7919;SDS011;18778;47.610;9.776;2023-01-23T16:21:12;39.40;;;20.83;;
7919;SDS011;18778;47.610;9.776;2023-01-23T16:23:41;34.57;;;20.00;;
7919;SDS011;18778;47.610;9.776;2023-01-23T16:26:26;32.27;;;17.87;;
7919;SDS011;18778;47.610;9.776;2023-01-23T16:28:53;29.80;;;17.20;;
7919;SDS011;18778;47.610;9.776;2023-01-23T16:31:19;35.20;;;19.60;;
7919;SDS011;18778;47.610;9.776;2023-01-23T16:33:45;35.20;;;20.90;;
7919;SDS011;18778;47.610;9.776;2023-01-23T16:36:12;32.50;;;19.33;;
7919;SDS011;18778;47.610;9.776;2023-01-23T16:38:39;31.80;;;18.17;;
7919;SDS011;18778;47.610;9.776;2023-01-23T16:41:04;32.77;;;18.67;;
7919;SDS011;18778;47.610;9.776;2023-01-23T16:43:31;32.03;;;18.43;;
7919;SDS011;18778;47.610;9.776;2023-01-23T16:45:57;30.67;;;18.37;;
7919;SDS011;18778;47.610;9.776;2023-01-23T16:48:23;28.80;;;18.40;;
7919;SDS011;18778;47.610;9.776;2023-01-23T16:50:50;29.03;;;16.90;;
7919;SDS011;18778;47.610;9.776;2023-01-23T16:55:48;32.40;;;19.63;;